sensor_id;sensor_type;location;lat;lon;timestamp;P1;durP1;ratioP1;P2;durP2;ratioP2
16828;SDS011;8531;48.078;11.968;2023-08-24T00:00:10;4.30;;;3.90;;
16828;SDS011;8531;48.078;11.968;2023-08-24T00:02:36;5.30;;;3.63;;
16828;SDS011;8531;48.078;11.968;2023-08-24T00:05:02;4.22;;;3.88;;
16828;SDS011;8531;48.078;11.968;2023-08-24T00:07:28;5.05;;;4.22;;
16828;SDS011;8531;48.078;11.968;2023-08-24T00:09:54;6.00;;;4.07;;
16828;SDS011;8531;48.078;11.968;2023-08-24T00:12:20;4.15;;;3.60;;
16828;SDS011;8531;48.078;11.968;2023-08-24T00:14:45;5.57;;;3.92;;
16828;SDS011;8531;48.078;11.968;2023-08-24T00:17:11;4.18;;;3.70;;
16828;SDS011;8531;48.078;11.968;2023-08-24T00:19:37;5.50;;;3.92;;
16828;SDS011;8531;48.078;11.968;2023-08-24T00:22:03;4.28;;;3.90;;
16828;SDS011;8531;48.078;11.968;2023-08-24T00:24:29;5.85;;;4.03;;
16828;SDS011;8531;48.078;11.968;2023-08-24T00:26:54;4.97;;;4.05;;
16828;SDS011;8531;48.078;11.968;2023-08-24T00:29:20;4.57;;;4.10;;
16828;SDS011;8531;48.078;11.968;2023-08-24T00:31:47;4.55;;;4.15;;
16828;SDS011;8531;48.078;11.968;2023-08-24T00:34:12;4.78;;;4.28;;
16828;SDS011;8531;48.078;11.968;2023-08-24T00:36:38;5.22;;;4.15;;
16828;SDS011;8531;48.078;11.968;2023-08-24T00:39:04;4.97;;;4.47;;
16828;SDS011;8531;48.078;11.968;2023-08-24T00:41:30;5.72;;;4.63;;
16828;SDS011;8531;48.078;11.968;2023-08-24T00:43:56;5.13;;;4.63;;
16828;SDS011;8531;48.078;11.968;2023-08-24T00:46:21;5.07;;;4.20;;
16828;SDS011;8531;48.078;11.968;2023-08-24T00:48:47;4.57;;;4.20;;
16828;SDS011;8531;48.078;11.968;2023-08-24T00:51:14;7.93;;;4.57;;
16828;SDS011;8531;48.078;11.968;2023-08-24T00:53:40;4.82;;;4.43;;
16828;SDS011;8531;48.078;11.968;2023-08-24T00:56:05;4.88;;;3.72;;
16828;SDS011;8531;48.078;11.968;2023-08-24T00:58:31;4.85;;;4.03;;
16828;SDS011;8531;48.078;11.968;2023-08-24T01:00:57;5.13;;;4.07;;
16828;SDS011;8531;48.078;11.968;2023-08-24T01:03:24;5.10;;;4.65;;
16828;SDS011;8531;48.078;11.968;2023-08-24T01:05:50;5.00;;;4.38;;
16828;SDS011;8531;48.078;11.968;2023-08-24T01:08:16;4.45;;;4.05;;
16828;SDS011;8531;48.078;11.968;2023-08-24T01:10:54;5.25;;;4.70;;
16828;SDS011;8531;48.078;11.968;2023-08-24T01:13:30;5.05;;;4.45;;
16828;SDS011;8531;48.078;11.968;2023-08-24T01:16:12;6.53;;;4.65;;
16828;SDS011;8531;48.078;11.968;2023-08-24T01:18:41;4.72;;;4.20;;
16828;SDS011;8531;48.078;11.968;2023-08-24T01:21:08;6.45;;;4.70;;
16828;SDS011;8531;48.078;11.968;2023-08-24T01:26:22;5.90;;;4.60;;
16828;SDS011;8531;48.078;11.968;2023-08-24T01:28:48;4.60;;;4.05;;
16828;SDS011;8531;48.078;11.968;2023-08-24T01:31:15;4.60;;;4.07;;
16828;SDS011;8531;48.078;11.968;2023-08-24T01:33:42;4.68;;;4.18;;
16828;SDS011;8531;48.078;11.968;2023-08-24T01:36:09;4.45;;;4.05;;
16828;SDS011;8531;48.078;11.968;2023-08-24T01:38:37;5.30;;;4.80;;
16828;SDS011;8531;48.078;11.968;2023-08-24T01:41:15;7.22;;;4.20;;
16828;SDS011;8531;48.078;11.968;2023-08-24T01:43:49;7.07;;;4.15;;
16828;SDS011;8531;48.078;11.968;2023-08-24T01:46:19;4.97;;;4.38;;
16828;SDS011;8531;48.078;11.968;2023-08-24T01:48:47;5.07;;;4.57;;
16828;SDS011;8531;48.078;11.968;2023-08-24T01:51:14;9.07;;;4.72;;
16828;SDS011;8531;48.078;11.968;2023-08-24T01:53:40;5.80;;;4.32;;
16828;SDS011;8531;48.078;11.968;2023-08-24T01:56:10;4.90;;;4.40;;
16828;SDS011;8531;48.078;11.968;2023-08-24T01:58:36;4.82;;;4.32;;
16828;SDS011;8531;48.078;11.968;2023-08-24T02:01:02;5.10;;;4.50;;
16828;SDS011;8531;48.078;11.968;2023-08-24T02:03:29;4.53;;;4.10;;
16828;SDS011;8531;48.078;11.968;2023-08-24T02:05:55;4.30;;;4.00;;
16828;SDS011;8531;48.078;11.968;2023-08-24T02:08:21;5.45;;;4.95;;
16828;SDS011;8531;48.078;11.968;2023-08-24T02:10:46;4.68;;;4.28;;
16828;SDS011;8531;48.078;11.968;2023-08-24T02:13:12;4.65;;;4.25;;
16828;SDS011;8531;48.078;11.968;2023-08-24T02:15:38;4.90;;;4.38;;
16828;SDS011;8531;48.078;11.968;2023-08-24T02:18:04;5.30;;;4.80;;
16828;SDS011;8531;48.078;11.968;2023-08-24T02:20:34;6.38;;;4.68;;
16828;SDS011;8531;48.078;11.968;2023-08-24T02:23:00;5.70;;;4.50;;
16828;SDS011;8531;48.078;11.968;2023-08-24T02:25:26;5.47;;;4.97;;
16828;SDS011;8531;48.078;11.968;2023-08-24T02:27:52;4.88;;;4.30;;
16828;SDS011;8531;48.078;11.968;2023-08-24T02:30:18;5.75;;;4.80;;
16828;SDS011;8531;48.078;11.968;2023-08-24T02:32:43;6.28;;;4.65;;
16828;SDS011;8531;48.078;11.968;2023-08-24T02:35:09;5.75;;;5.03;;
16828;SDS011;8531;48.078;11.968;2023-08-24T02:37:35;5.72;;;5.15;;
16828;SDS011;8531;48.078;11.968;2023-08-24T02:40:01;6.43;;;5.82;;
16828;SDS011;8531;48.078;11.968;2023-08-24T02:42:27;9.07;;;6.40;;
16828;SDS011;8531;48.078;11.968;2023-08-24T02:44:55;8.18;;;6.38;;
16828;SDS011;8531;48.078;11.968;2023-08-24T02:47:20;6.90;;;6.00;;
16828;SDS011;8531;48.078;11.968;2023-08-24T02:49:46;7.60;;;6.80;;
16828;SDS011;8531;48.078;11.968;2023-08-24T02:52:12;8.85;;;6.55;;
16828;SDS011;8531;48.078;11.968;2023-08-24T02:54:37;9.82;;;7.32;;
16828;SDS011;8531;48.078;11.968;2023-08-24T02:57:03;9.25;;;6.47;;
16828;SDS011;8531;48.078;11.968;2023-08-24T02:59:28;9.35;;;6.82;;
16828;SDS011;8531;48.078;11.968;2023-08-24T03:01:54;10.82;;;6.78;;
16828;SDS011;8531;48.078;11.968;2023-08-24T03:04:20;10.75;;;6.90;;
16828;SDS011;8531;48.078;11.968;2023-08-24T03:06:46;9.93;;;7.25;;
16828;SDS011;8531;48.078;11.968;2023-08-24T03:09:12;7.95;;;6.15;;
16828;SDS011;8531;48.078;11.968;2023-08-24T03:11:37;9.02;;;6.78;;
16828;SDS011;8531;48.078;11.968;2023-08-24T03:14:03;8.63;;;7.05;;
16828;SDS011;8531;48.078;11.968;2023-08-24T03:16:29;8.05;;;7.22;;
16828;SDS011;8531;48.078;11.968;2023-08-24T03:18:54;8.35;;;7.00;;
16828;SDS011;8531;48.078;11.968;2023-08-24T03:21:20;8.48;;;7.68;;
16828;SDS011;8531;48.078;11.968;2023-08-24T03:23:46;11.68;;;8.68;;
16828;SDS011;8531;48.078;11.968;2023-08-24T03:26:11;7.82;;;7.03;;
16828;SDS011;8531;48.078;11.968;2023-08-24T03:28:37;8.82;;;7.93;;
16828;SDS011;8531;48.078;11.968;2023-08-24T03:31:03;12.02;;;8.18;;
16828;SDS011;8531;48.078;11.968;2023-08-24T03:33:28;7.28;;;6.60;;
16828;SDS011;8531;48.078;11.968;2023-08-24T03:35:55;9.23;;;7.85;;
16828;SDS011;8531;48.078;11.968;2023-08-24T03:38:21;9.40;;;8.10;;
16828;SDS011;8531;48.078;11.968;2023-08-24T03:40:46;8.75;;;7.93;;
16828;SDS011;8531;48.078;11.968;2023-08-24T03:43:12;9.40;;;7.43;;
16828;SDS011;8531;48.078;11.968;2023-08-24T03:45:38;8.25;;;7.43;;
16828;SDS011;8531;48.078;11.968;2023-08-24T03:48:03;8.23;;;7.38;;
16828;SDS011;8531;48.078;11.968;2023-08-24T03:50:29;8.07;;;7.35;;
16828;SDS011;8531;48.078;11.968;2023-08-24T03:52:55;8.10;;;7.35;;
16828;SDS011;8531;48.078;11.968;2023-08-24T03:55:22;12.07;;;9.45;;
16828;SDS011;8531;48.078;11.968;2023-08-24T03:57:48;12.30;;;7.97;;
16828;SDS011;8531;48.078;11.968;2023-08-24T04:00:13;8.90;;;7.93;;
16828;SDS011;8531;48.078;11.968;2023-08-24T04:02:42;9.57;;;8.60;;
16828;SDS011;8531;48.078;11.968;2023-08-24T04:05:08;9.25;;;8.35;;
16828;SDS011;8531;48.078;11.968;2023-08-24T04:07:34;10.10;;;8.70;;
16828;SDS011;8531;48.078;11.968;2023-08-24T04:10:04;9.32;;;8.43;;
16828;SDS011;8531;48.078;11.968;2023-08-24T04:12:31;10.23;;;8.35;;
16828;SDS011;8531;48.078;11.968;2023-08-24T04:14:57;9.05;;;8.10;;
16828;SDS011;8531;48.078;11.968;2023-08-24T04:17:23;11.27;;;8.45;;
16828;SDS011;8531;48.078;11.968;2023-08-24T04:19:49;10.18;;;9.13;;
16828;SDS011;8531;48.078;11.968;2023-08-24T04:22:15;10.25;;;9.25;;
16828;SDS011;8531;48.078;11.968;2023-08-24T04:24:40;11.32;;;9.02;;
16828;SDS011;8531;48.078;11.968;2023-08-24T04:27:06;11.48;;;9.68;;
16828;SDS011;8531;48.078;11.968;2023-08-24T04:29:32;12.15;;;10.82;;
16828;SDS011;8531;48.078;11.968;2023-08-24T04:31:58;11.15;;;10.05;;
16828;SDS011;8531;48.078;11.968;2023-08-24T04:34:23;11.32;;;10.30;;
16828;SDS011;8531;48.078;11.968;2023-08-24T04:36:49;10.15;;;9.35;;
16828;SDS011;8531;48.078;11.968;2023-08-24T04:39:15;11.60;;;10.40;;
16828;SDS011;8531;48.078;11.968;2023-08-24T04:41:40;11.63;;;9.77;;
16828;SDS011;8531;48.078;11.968;2023-08-24T04:44:06;12.27;;;9.38;;
16828;SDS011;8531;48.078;11.968;2023-08-24T04:46:33;10.07;;;9.07;;
16828;SDS011;8531;48.078;11.968;2023-08-24T04:48:59;12.57;;;9.43;;
16828;SDS011;8531;48.078;11.968;2023-08-24T04:51:24;7.97;;;7.18;;
16828;SDS011;8531;48.078;11.968;2023-08-24T04:53:52;9.68;;;8.52;;
16828;SDS011;8531;48.078;11.968;2023-08-24T04:56:18;9.60;;;8.48;;
16828;SDS011;8531;48.078;11.968;2023-08-24T04:58:56;12.05;;;8.45;;
16828;SDS011;8531;48.078;11.968;2023-08-24T05:01:23;11.95;;;9.55;;
16828;SDS011;8531;48.078;11.968;2023-08-24T05:03:50;11.77;;;9.13;;
16828;SDS011;8531;48.078;11.968;2023-08-24T05:06:17;9.30;;;8.50;;
16828;SDS011;8531;48.078;11.968;2023-08-24T05:08:43;13.95;;;9.27;;
16828;SDS011;8531;48.078;11.968;2023-08-24T05:11:17;11.50;;;8.52;;
16828;SDS011;8531;48.078;11.968;2023-08-24T05:13:43;9.90;;;9.07;;
16828;SDS011;8531;48.078;11.968;2023-08-24T05:16:10;10.30;;;9.30;;
16828;SDS011;8531;48.078;11.968;2023-08-24T05:18:36;9.73;;;8.73;;
16828;SDS011;8531;48.078;11.968;2023-08-24T05:21:02;11.57;;;9.18;;
16828;SDS011;8531;48.078;11.968;2023-08-24T05:23:29;8.43;;;7.45;;
16828;SDS011;8531;48.078;11.968;2023-08-24T05:25:58;9.52;;;8.60;;
16828;SDS011;8531;48.078;11.968;2023-08-24T05:28:25;13.43;;;11.13;;
16828;SDS011;8531;48.078;11.968;2023-08-24T05:30:51;11.32;;;8.68;;
16828;SDS011;8531;48.078;11.968;2023-08-24T05:33:17;10.27;;;8.88;;
16828;SDS011;8531;48.078;11.968;2023-08-24T05:35:44;9.23;;;8.43;;
16828;SDS011;8531;48.078;11.968;2023-08-24T05:38:10;12.93;;;9.73;;
16828;SDS011;8531;48.078;11.968;2023-08-24T05:40:36;9.07;;;8.25;;
16828;SDS011;8531;48.078;11.968;2023-08-24T05:43:02;9.95;;;8.95;;
16828;SDS011;8531;48.078;11.968;2023-08-24T05:45:28;11.57;;;9.68;;
16828;SDS011;8531;48.078;11.968;2023-08-24T05:47:54;9.20;;;8.40;;
16828;SDS011;8531;48.078;11.968;2023-08-24T05:50:19;9.20;;;8.38;;
16828;SDS011;8531;48.078;11.968;2023-08-24T05:52:45;10.07;;;8.90;;
16828;SDS011;8531;48.078;11.968;2023-08-24T05:55:11;8.68;;;7.88;;
16828;SDS011;8531;48.078;11.968;2023-08-24T05:57:36;9.27;;;8.38;;
16828;SDS011;8531;48.078;11.968;2023-08-24T06:00:02;9.27;;;8.27;;
16828;SDS011;8531;48.078;11.968;2023-08-24T06:02:34;12.25;;;9.25;;
16828;SDS011;8531;48.078;11.968;2023-08-24T06:05:00;12.48;;;8.68;;
16828;SDS011;8531;48.078;11.968;2023-08-24T06:07:25;11.23;;;10.07;;
16828;SDS011;8531;48.078;11.968;2023-08-24T06:09:51;11.75;;;9.70;;
16828;SDS011;8531;48.078;11.968;2023-08-24T06:12:16;10.98;;;9.43;;
16828;SDS011;8531;48.078;11.968;2023-08-24T06:14:42;11.30;;;8.65;;
16828;SDS011;8531;48.078;11.968;2023-08-24T06:17:08;9.60;;;8.50;;
16828;SDS011;8531;48.078;11.968;2023-08-24T06:19:33;9.52;;;8.63;;
16828;SDS011;8531;48.078;11.968;2023-08-24T06:21:59;9.73;;;8.82;;
16828;SDS011;8531;48.078;11.968;2023-08-24T06:24:25;11.00;;;9.68;;
16828;SDS011;8531;48.078;11.968;2023-08-24T06:26:50;10.35;;;9.07;;
16828;SDS011;8531;48.078;11.968;2023-08-24T06:29:16;10.13;;;9.18;;
16828;SDS011;8531;48.078;11.968;2023-08-24T06:31:42;10.05;;;8.75;;
16828;SDS011;8531;48.078;11.968;2023-08-24T06:34:07;11.15;;;9.18;;
16828;SDS011;8531;48.078;11.968;2023-08-24T06:36:33;9.95;;;9.02;;
16828;SDS011;8531;48.078;11.968;2023-08-24T06:38:59;9.65;;;8.73;;
16828;SDS011;8531;48.078;11.968;2023-08-24T06:41:25;10.93;;;8.27;;
16828;SDS011;8531;48.078;11.968;2023-08-24T06:43:50;14.93;;;9.20;;
16828;SDS011;8531;48.078;11.968;2023-08-24T06:46:18;10.40;;;8.40;;
16828;SDS011;8531;48.078;11.968;2023-08-24T06:48:44;9.98;;;8.65;;
16828;SDS011;8531;48.078;11.968;2023-08-24T06:51:10;9.82;;;7.95;;
16828;SDS011;8531;48.078;11.968;2023-08-24T06:53:36;8.80;;;8.00;;
16828;SDS011;8531;48.078;11.968;2023-08-24T06:56:02;8.48;;;7.53;;
16828;SDS011;8531;48.078;11.968;2023-08-24T06:58:28;8.48;;;7.63;;
16828;SDS011;8531;48.078;11.968;2023-08-24T07:00:54;9.23;;;7.85;;
16828;SDS011;8531;48.078;11.968;2023-08-24T07:03:20;10.65;;;7.45;;
16828;SDS011;8531;48.078;11.968;2023-08-24T07:05:46;9.98;;;8.95;;
16828;SDS011;8531;48.078;11.968;2023-08-24T07:08:12;11.02;;;8.27;;
16828;SDS011;8531;48.078;11.968;2023-08-24T07:10:39;9.38;;;7.95;;
16828;SDS011;8531;48.078;11.968;2023-08-24T07:13:05;8.40;;;7.60;;
16828;SDS011;8531;48.078;11.968;2023-08-24T07:15:32;10.40;;;7.78;;
16828;SDS011;8531;48.078;11.968;2023-08-24T07:18:00;7.50;;;6.80;;
16828;SDS011;8531;48.078;11.968;2023-08-24T07:20:26;7.20;;;6.60;;
16828;SDS011;8531;48.078;11.968;2023-08-24T07:22:52;9.75;;;7.57;;
16828;SDS011;8531;48.078;11.968;2023-08-24T07:25:19;10.73;;;7.15;;
16828;SDS011;8531;48.078;11.968;2023-08-24T07:27:46;9.25;;;7.90;;
16828;SDS011;8531;48.078;11.968;2023-08-24T07:30:12;8.40;;;7.55;;
16828;SDS011;8531;48.078;11.968;2023-08-24T07:32:38;9.10;;;7.38;;
16828;SDS011;8531;48.078;11.968;2023-08-24T07:35:04;7.78;;;6.85;;
16828;SDS011;8531;48.078;11.968;2023-08-24T07:37:31;9.07;;;7.13;;
16828;SDS011;8531;48.078;11.968;2023-08-24T07:39:57;7.10;;;6.28;;
16828;SDS011;8531;48.078;11.968;2023-08-24T07:42:23;7.18;;;6.45;;
16828;SDS011;8531;48.078;11.968;2023-08-24T07:44:49;10.98;;;6.55;;
16828;SDS011;8531;48.078;11.968;2023-08-24T07:47:15;9.50;;;5.78;;
16828;SDS011;8531;48.078;11.968;2023-08-24T07:49:41;6.80;;;6.15;;
16828;SDS011;8531;48.078;11.968;2023-08-24T07:52:10;8.15;;;6.40;;
16828;SDS011;8531;48.078;11.968;2023-08-24T07:54:37;7.75;;;5.78;;
16828;SDS011;8531;48.078;11.968;2023-08-24T07:57:02;8.07;;;6.45;;
16828;SDS011;8531;48.078;11.968;2023-08-24T07:59:28;11.23;;;6.38;;
16828;SDS011;8531;48.078;11.968;2023-08-24T08:01:54;5.47;;;4.97;;
16828;SDS011;8531;48.078;11.968;2023-08-24T08:04:19;7.25;;;6.65;;
16828;SDS011;8531;48.078;11.968;2023-08-24T08:06:45;9.15;;;6.10;;
16828;SDS011;8531;48.078;11.968;2023-08-24T08:09:11;9.00;;;7.50;;
16828;SDS011;8531;48.078;11.968;2023-08-24T08:11:37;6.43;;;5.57;;
16828;SDS011;8531;48.078;11.968;2023-08-24T08:14:02;8.07;;;5.53;;
16828;SDS011;8531;48.078;11.968;2023-08-24T08:16:28;9.23;;;6.20;;
16828;SDS011;8531;48.078;11.968;2023-08-24T08:18:54;7.10;;;6.22;;
16828;SDS011;8531;48.078;11.968;2023-08-24T08:21:20;6.43;;;5.75;;
16828;SDS011;8531;48.078;11.968;2023-08-24T08:23:48;6.07;;;5.45;;
16828;SDS011;8531;48.078;11.968;2023-08-24T08:26:14;6.68;;;6.05;;
16828;SDS011;8531;48.078;11.968;2023-08-24T08:28:41;6.22;;;5.43;;
16828;SDS011;8531;48.078;11.968;2023-08-24T08:31:07;7.25;;;6.50;;
16828;SDS011;8531;48.078;11.968;2023-08-24T08:33:33;7.15;;;6.55;;
16828;SDS011;8531;48.078;11.968;2023-08-24T08:35:59;9.60;;;6.68;;
16828;SDS011;8531;48.078;11.968;2023-08-24T08:38:25;9.38;;;6.50;;
16828;SDS011;8531;48.078;11.968;2023-08-24T08:40:53;7.85;;;5.82;;
16828;SDS011;8531;48.078;11.968;2023-08-24T08:43:21;9.52;;;6.32;;
16828;SDS011;8531;48.078;11.968;2023-08-24T08:45:49;7.78;;;6.20;;
16828;SDS011;8531;48.078;11.968;2023-08-24T08:48:15;7.68;;;6.65;;
16828;SDS011;8531;48.078;11.968;2023-08-24T08:50:40;7.20;;;6.15;;
16828;SDS011;8531;48.078;11.968;2023-08-24T08:53:07;9.32;;;5.85;;
16828;SDS011;8531;48.078;11.968;2023-08-24T08:55:32;7.45;;;6.63;;
16828;SDS011;8531;48.078;11.968;2023-08-24T08:57:58;10.05;;;6.93;;
16828;SDS011;8531;48.078;11.968;2023-08-24T09:00:27;7.90;;;5.82;;
16828;SDS011;8531;48.078;11.968;2023-08-24T09:02:54;7.68;;;5.82;;
16828;SDS011;8531;48.078;11.968;2023-08-24T09:05:21;7.38;;;6.07;;
16828;SDS011;8531;48.078;11.968;2023-08-24T09:07:51;7.22;;;5.82;;
16828;SDS011;8531;48.078;11.968;2023-08-24T09:10:19;7.65;;;5.82;;
16828;SDS011;8531;48.078;11.968;2023-08-24T09:12:45;10.75;;;6.07;;
16828;SDS011;8531;48.078;11.968;2023-08-24T09:15:11;5.97;;;5.38;;
16828;SDS011;8531;48.078;11.968;2023-08-24T09:17:42;10.63;;;6.00;;
16828;SDS011;8531;48.078;11.968;2023-08-24T09:20:09;6.47;;;4.80;;
16828;SDS011;8531;48.078;11.968;2023-08-24T09:22:36;6.40;;;5.68;;
16828;SDS011;8531;48.078;11.968;2023-08-24T09:25:04;7.22;;;5.85;;
16828;SDS011;8531;48.078;11.968;2023-08-24T09:27:31;6.18;;;5.47;;
16828;SDS011;8531;48.078;11.968;2023-08-24T09:29:57;8.07;;;6.03;;
16828;SDS011;8531;48.078;11.968;2023-08-24T09:32:29;5.78;;;5.20;;
16828;SDS011;8531;48.078;11.968;2023-08-24T09:35:01;6.38;;;5.72;;
16828;SDS011;8531;48.078;11.968;2023-08-24T09:37:35;6.40;;;5.85;;
16828;SDS011;8531;48.078;11.968;2023-08-24T09:40:02;6.85;;;6.15;;
16828;SDS011;8531;48.078;11.968;2023-08-24T09:42:33;5.93;;;5.38;;
16828;SDS011;8531;48.078;11.968;2023-08-24T09:45:03;6.22;;;5.63;;
16828;SDS011;8531;48.078;11.968;2023-08-24T09:47:29;8.23;;;5.05;;
16828;SDS011;8531;48.078;11.968;2023-08-24T09:49:55;7.47;;;5.10;;
16828;SDS011;8531;48.078;11.968;2023-08-24T09:52:21;8.13;;;5.90;;
16828;SDS011;8531;48.078;11.968;2023-08-24T09:54:51;7.93;;;5.78;;
16828;SDS011;8531;48.078;11.968;2023-08-24T09:57:18;8.05;;;5.40;;
16828;SDS011;8531;48.078;11.968;2023-08-24T09:59:44;8.25;;;5.35;;
16828;SDS011;8531;48.078;11.968;2023-08-24T10:02:16;7.25;;;5.65;;
16828;SDS011;8531;48.078;11.968;2023-08-24T10:04:46;14.90;;;6.25;;
16828;SDS011;8531;48.078;11.968;2023-08-24T10:07:15;7.85;;;6.20;;
16828;SDS011;8531;48.078;11.968;2023-08-24T10:12:15;5.57;;;4.70;;
16828;SDS011;8531;48.078;11.968;2023-08-24T10:14:47;9.85;;;5.07;;
16828;SDS011;8531;48.078;11.968;2023-08-24T10:17:15;9.63;;;5.65;;
16828;SDS011;8531;48.078;11.968;2023-08-24T10:19:41;7.00;;;5.50;;
16828;SDS011;8531;48.078;11.968;2023-08-24T10:22:08;8.20;;;5.70;;
16828;SDS011;8531;48.078;11.968;2023-08-24T10:24:35;8.75;;;5.38;;
16828;SDS011;8531;48.078;11.968;2023-08-24T10:27:01;7.97;;;5.85;;
16828;SDS011;8531;48.078;11.968;2023-08-24T10:29:28;6.88;;;5.03;;
16828;SDS011;8531;48.078;11.968;2023-08-24T10:31:54;8.35;;;5.55;;
16828;SDS011;8531;48.078;11.968;2023-08-24T10:34:21;6.25;;;5.20;;
16828;SDS011;8531;48.078;11.968;2023-08-24T10:36:48;10.15;;;5.68;;
16828;SDS011;8531;48.078;11.968;2023-08-24T10:39:14;10.88;;;5.88;;
16828;SDS011;8531;48.078;11.968;2023-08-24T10:41:51;6.07;;;4.75;;
16828;SDS011;8531;48.078;11.968;2023-08-24T10:49:33;5.72;;;5.13;;
16828;SDS011;8531;48.078;11.968;2023-08-24T10:52:15;9.43;;;7.05;;
16828;SDS011;8531;48.078;11.968;2023-08-24T10:54:43;7.70;;;5.18;;
16828;SDS011;8531;48.078;11.968;2023-08-24T10:57:17;5.68;;;5.03;;
16828;SDS011;8531;48.078;11.968;2023-08-24T10:59:59;5.88;;;5.35;;
16828;SDS011;8531;48.078;11.968;2023-08-24T11:02:30;8.93;;;5.47;;
16828;SDS011;8531;48.078;11.968;2023-08-24T11:05:20;6.50;;;5.50;;
16828;SDS011;8531;48.078;11.968;2023-08-24T11:07:47;10.30;;;4.90;;
16828;SDS011;8531;48.078;11.968;2023-08-24T11:10:16;5.85;;;4.75;;
16828;SDS011;8531;48.078;11.968;2023-08-24T11:15:48;4.85;;;4.32;;
16828;SDS011;8531;48.078;11.968;2023-08-24T11:18:26;5.20;;;4.32;;
16828;SDS011;8531;48.078;11.968;2023-08-24T11:23:27;5.95;;;5.30;;
16828;SDS011;8531;48.078;11.968;2023-08-24T11:25:54;6.68;;;4.22;;
16828;SDS011;8531;48.078;11.968;2023-08-24T11:28:23;9.90;;;4.97;;
16828;SDS011;8531;48.078;11.968;2023-08-24T11:30:50;5.45;;;4.97;;
16828;SDS011;8531;48.078;11.968;2023-08-24T11:33:18;5.57;;;5.00;;
16828;SDS011;8531;48.078;11.968;2023-08-24T11:35:58;5.18;;;4.68;;
16828;SDS011;8531;48.078;11.968;2023-08-24T11:38:34;6.75;;;5.35;;
16828;SDS011;8531;48.078;11.968;2023-08-24T11:41:10;8.15;;;5.18;;
16828;SDS011;8531;48.078;11.968;2023-08-24T11:43:42;8.30;;;5.20;;
16828;SDS011;8531;48.078;11.968;2023-08-24T11:46:12;5.93;;;4.80;;
16828;SDS011;8531;48.078;11.968;2023-08-24T11:48:40;6.45;;;5.03;;
16828;SDS011;8531;48.078;11.968;2023-08-24T11:51:12;7.70;;;4.80;;
16828;SDS011;8531;48.078;11.968;2023-08-24T11:53:45;6.40;;;4.90;;
16828;SDS011;8531;48.078;11.968;2023-08-24T11:56:12;5.47;;;4.78;;
16828;SDS011;8531;48.078;11.968;2023-08-24T11:58:42;5.18;;;4.50;;
16828;SDS011;8531;48.078;11.968;2023-08-24T12:01:12;5.43;;;4.38;;
16828;SDS011;8531;48.078;11.968;2023-08-24T12:03:38;6.90;;;4.43;;
16828;SDS011;8531;48.078;11.968;2023-08-24T12:06:11;7.55;;;4.93;;
16828;SDS011;8531;48.078;11.968;2023-08-24T12:08:41;5.05;;;4.50;;
16828;SDS011;8531;48.078;11.968;2023-08-24T12:11:15;5.05;;;4.65;;
16828;SDS011;8531;48.078;11.968;2023-08-24T12:13:46;6.82;;;4.50;;
16828;SDS011;8531;48.078;11.968;2023-08-24T12:16:14;5.30;;;4.13;;
16828;SDS011;8531;48.078;11.968;2023-08-24T12:18:54;4.80;;;4.35;;
16828;SDS011;8531;48.078;11.968;2023-08-24T12:21:25;6.55;;;4.63;;
16828;SDS011;8531;48.078;11.968;2023-08-24T12:23:58;4.47;;;4.07;;
16828;SDS011;8531;48.078;11.968;2023-08-24T12:26:25;5.22;;;4.68;;
16828;SDS011;8531;48.078;11.968;2023-08-24T12:28:51;7.63;;;4.22;;
16828;SDS011;8531;48.078;11.968;2023-08-24T12:31:18;6.25;;;4.32;;
16828;SDS011;8531;48.078;11.968;2023-08-24T12:33:44;5.38;;;4.38;;
16828;SDS011;8531;48.078;11.968;2023-08-24T12:36:11;6.28;;;4.68;;
16828;SDS011;8531;48.078;11.968;2023-08-24T12:38:37;5.15;;;4.45;;
16828;SDS011;8531;48.078;11.968;2023-08-24T12:41:03;5.95;;;4.45;;
16828;SDS011;8531;48.078;11.968;2023-08-24T12:43:29;8.15;;;4.82;;
16828;SDS011;8531;48.078;11.968;2023-08-24T12:45:55;7.50;;;4.32;;
16828;SDS011;8531;48.078;11.968;2023-08-24T12:48:21;6.88;;;4.07;;
16828;SDS011;8531;48.078;11.968;2023-08-24T12:50:46;7.22;;;4.18;;
16828;SDS011;8531;48.078;11.968;2023-08-24T12:53:12;4.72;;;4.22;;
16828;SDS011;8531;48.078;11.968;2023-08-24T12:55:38;4.55;;;4.15;;
16828;SDS011;8531;48.078;11.968;2023-08-24T12:58:07;8.50;;;4.65;;
16828;SDS011;8531;48.078;11.968;2023-08-24T13:00:34;7.70;;;4.55;;
16828;SDS011;8531;48.078;11.968;2023-08-24T13:02:59;6.80;;;4.10;;
16828;SDS011;8531;48.078;11.968;2023-08-24T13:05:25;8.82;;;4.80;;
16828;SDS011;8531;48.078;11.968;2023-08-24T13:07:51;6.72;;;4.28;;
16828;SDS011;8531;48.078;11.968;2023-08-24T13:10:17;9.20;;;4.35;;
16828;SDS011;8531;48.078;11.968;2023-08-24T13:12:42;6.50;;;4.50;;
16828;SDS011;8531;48.078;11.968;2023-08-24T13:15:08;4.72;;;3.92;;
16828;SDS011;8531;48.078;11.968;2023-08-24T13:17:36;9.10;;;4.45;;
16828;SDS011;8531;48.078;11.968;2023-08-24T13:20:01;8.68;;;4.28;;
16828;SDS011;8531;48.078;11.968;2023-08-24T13:22:28;5.85;;;3.72;;
16828;SDS011;8531;48.078;11.968;2023-08-24T13:24:54;4.97;;;4.43;;
16828;SDS011;8531;48.078;11.968;2023-08-24T13:27:19;5.28;;;3.63;;
16828;SDS011;8531;48.078;11.968;2023-08-24T13:29:45;7.15;;;4.43;;
16828;SDS011;8531;48.078;11.968;2023-08-24T13:32:11;8.32;;;4.53;;
16828;SDS011;8531;48.078;11.968;2023-08-24T13:34:36;4.90;;;4.13;;
16828;SDS011;8531;48.078;11.968;2023-08-24T13:37:02;6.40;;;3.95;;
16828;SDS011;8531;48.078;11.968;2023-08-24T13:39:29;9.48;;;4.30;;
16828;SDS011;8531;48.078;11.968;2023-08-24T13:41:58;8.57;;;4.80;;
16828;SDS011;8531;48.078;11.968;2023-08-24T13:44:24;7.15;;;4.82;;
16828;SDS011;8531;48.078;11.968;2023-08-24T13:46:50;6.68;;;3.65;;
16828;SDS011;8531;48.078;11.968;2023-08-24T13:49:19;8.70;;;4.57;;
16828;SDS011;8531;48.078;11.968;2023-08-24T13:51:45;4.95;;;4.22;;
16828;SDS011;8531;48.078;11.968;2023-08-24T13:54:13;7.40;;;4.18;;
16828;SDS011;8531;48.078;11.968;2023-08-24T13:56:43;8.73;;;4.50;;
16828;SDS011;8531;48.078;11.968;2023-08-24T13:59:09;8.70;;;4.55;;
16828;SDS011;8531;48.078;11.968;2023-08-24T14:01:35;8.27;;;4.38;;
16828;SDS011;8531;48.078;11.968;2023-08-24T14:04:01;5.25;;;3.85;;
16828;SDS011;8531;48.078;11.968;2023-08-24T14:06:28;5.95;;;4.15;;
16828;SDS011;8531;48.078;11.968;2023-08-24T14:08:54;8.75;;;4.15;;
16828;SDS011;8531;48.078;11.968;2023-08-24T14:11:21;8.25;;;4.18;;
16828;SDS011;8531;48.078;11.968;2023-08-24T14:13:47;7.38;;;4.13;;
16828;SDS011;8531;48.078;11.968;2023-08-24T14:16:13;6.40;;;4.28;;
16828;SDS011;8531;48.078;11.968;2023-08-24T14:18:38;6.63;;;3.92;;
16828;SDS011;8531;48.078;11.968;2023-08-24T14:21:04;6.22;;;4.10;;
16828;SDS011;8531;48.078;11.968;2023-08-24T14:23:30;5.85;;;3.88;;
16828;SDS011;8531;48.078;11.968;2023-08-24T14:25:56;10.05;;;4.15;;
16828;SDS011;8531;48.078;11.968;2023-08-24T14:28:22;7.25;;;4.18;;
16828;SDS011;8531;48.078;11.968;2023-08-24T14:30:51;10.55;;;4.15;;
16828;SDS011;8531;48.078;11.968;2023-08-24T14:33:17;7.03;;;3.88;;
16828;SDS011;8531;48.078;11.968;2023-08-24T14:35:52;8.93;;;3.83;;
16828;SDS011;8531;48.078;11.968;2023-08-24T14:38:18;7.70;;;3.55;;
16828;SDS011;8531;48.078;11.968;2023-08-24T14:40:44;5.68;;;3.88;;
16828;SDS011;8531;48.078;11.968;2023-08-24T14:43:10;9.63;;;4.50;;
16828;SDS011;8531;48.078;11.968;2023-08-24T14:45:36;7.30;;;4.00;;
16828;SDS011;8531;48.078;11.968;2023-08-24T14:48:02;5.88;;;3.92;;
16828;SDS011;8531;48.078;11.968;2023-08-24T14:50:27;9.43;;;4.07;;
16828;SDS011;8531;48.078;11.968;2023-08-24T14:52:53;6.57;;;3.40;;
16828;SDS011;8531;48.078;11.968;2023-08-24T14:55:19;7.38;;;3.40;;
16828;SDS011;8531;48.078;11.968;2023-08-24T14:57:44;10.05;;;3.75;;
16828;SDS011;8531;48.078;11.968;2023-08-24T15:00:10;9.30;;;2.97;;